sensor_id;sensor_type;location;lat;lon;timestamp;P1;durP1;ratioP1;P2;durP2;ratioP2
32038;SDS011;18549;42.286;22.688;2023-07-13T00:00:48;6.78;;;5.43;;
32038;SDS011;18549;42.286;22.688;2023-07-13T00:03:16;8.73;;;5.32;;
32038;SDS011;18549;42.286;22.688;2023-07-13T00:05:45;8.45;;;5.40;;
32038;SDS011;18549;42.286;22.688;2023-07-13T00:08:13;10.25;;;5.30;;
32038;SDS011;18549;42.286;22.688;2023-07-13T00:10:40;9.50;;;4.78;;
32038;SDS011;18549;42.286;22.688;2023-07-13T00:13:09;12.07;;;5.10;;
32038;SDS011;18549;42.286;22.688;2023-07-13T00:15:37;9.50;;;5.50;;
32038;SDS011;18549;42.286;22.688;2023-07-13T00:18:05;8.95;;;5.53;;
32038;SDS011;18549;42.286;22.688;2023-07-13T00:20:33;13.95;;;5.90;;
32038;SDS011;18549;42.286;22.688;2023-07-13T00:23:02;8.20;;;5.97;;
32038;SDS011;18549;42.286;22.688;2023-07-13T00:25:30;9.67;;;6.00;;
32038;SDS011;18549;42.286;22.688;2023-07-13T00:27:57;10.93;;;5.97;;
32038;SDS011;18549;42.286;22.688;2023-07-13T00:30:24;13.82;;;6.15;;
32038;SDS011;18549;42.286;22.688;2023-07-13T00:32:52;12.23;;;7.78;;
32038;SDS011;18549;42.286;22.688;2023-07-13T00:35:19;8.05;;;6.10;;
32038;SDS011;18549;42.286;22.688;2023-07-13T00:37:47;7.40;;;5.78;;
32038;SDS011;18549;42.286;22.688;2023-07-13T00:40:16;14.13;;;6.37;;
32038;SDS011;18549;42.286;22.688;2023-07-13T00:42:44;15.65;;;7.68;;
32038;SDS011;18549;42.286;22.688;2023-07-13T00:48:17;9.05;;;6.00;;
32038;SDS011;18549;42.286;22.688;2023-07-13T00:50:48;7.68;;;6.05;;
32038;SDS011;18549;42.286;22.688;2023-07-13T00:53:18;11.07;;;5.50;;
32038;SDS011;18549;42.286;22.688;2023-07-13T00:55:48;14.70;;;6.35;;
32038;SDS011;18549;42.286;22.688;2023-07-13T00:58:20;13.20;;;6.65;;
32038;SDS011;18549;42.286;22.688;2023-07-13T01:00:47;8.98;;;6.18;;
32038;SDS011;18549;42.286;22.688;2023-07-13T01:03:16;6.93;;;5.20;;
32038;SDS011;18549;42.286;22.688;2023-07-13T01:05:43;7.97;;;4.70;;
32038;SDS011;18549;42.286;22.688;2023-07-13T01:08:15;8.02;;;4.85;;
32038;SDS011;18549;42.286;22.688;2023-07-13T01:10:51;10.27;;;5.82;;
32038;SDS011;18549;42.286;22.688;2023-07-13T01:13:20;7.20;;;4.55;;
32038;SDS011;18549;42.286;22.688;2023-07-13T01:15:49;11.20;;;4.37;;
32038;SDS011;18549;42.286;22.688;2023-07-13T01:18:19;6.85;;;4.75;;
32038;SDS011;18549;42.286;22.688;2023-07-13T01:20:54;10.27;;;5.05;;
32038;SDS011;18549;42.286;22.688;2023-07-13T01:23:25;8.73;;;5.82;;
32038;SDS011;18549;42.286;22.688;2023-07-13T01:25:53;9.15;;;5.45;;
32038;SDS011;18549;42.286;22.688;2023-07-13T01:28:21;7.65;;;4.87;;
32038;SDS011;18549;42.286;22.688;2023-07-13T01:30:52;10.63;;;5.32;;
32038;SDS011;18549;42.286;22.688;2023-07-13T01:33:21;12.65;;;5.28;;
32038;SDS011;18549;42.286;22.688;2023-07-13T01:35:48;11.02;;;6.65;;
32038;SDS011;18549;42.286;22.688;2023-07-13T01:38:18;7.75;;;4.80;;
32038;SDS011;18549;42.286;22.688;2023-07-13T01:40:46;6.87;;;5.05;;
32038;SDS011;18549;42.286;22.688;2023-07-13T01:43:13;9.02;;;5.03;;
32038;SDS011;18549;42.286;22.688;2023-07-13T01:45:41;9.30;;;5.47;;
32038;SDS011;18549;42.286;22.688;2023-07-13T01:48:10;10.50;;;5.90;;
32038;SDS011;18549;42.286;22.688;2023-07-13T01:50:38;6.47;;;5.18;;
32038;SDS011;18549;42.286;22.688;2023-07-13T01:53:05;11.50;;;5.03;;
32038;SDS011;18549;42.286;22.688;2023-07-13T01:55:34;9.80;;;5.90;;
32038;SDS011;18549;42.286;22.688;2023-07-13T01:58:03;8.55;;;5.45;;
32038;SDS011;18549;42.286;22.688;2023-07-13T02:00:30;7.68;;;5.75;;
32038;SDS011;18549;42.286;22.688;2023-07-13T02:02:58;9.07;;;5.80;;
32038;SDS011;18549;42.286;22.688;2023-07-13T02:05:25;9.82;;;6.05;;
32038;SDS011;18549;42.286;22.688;2023-07-13T02:07:53;7.78;;;5.32;;
32038;SDS011;18549;42.286;22.688;2023-07-13T02:10:20;7.12;;;5.00;;
32038;SDS011;18549;42.286;22.688;2023-07-13T02:12:50;9.18;;;5.25;;
32038;SDS011;18549;42.286;22.688;2023-07-13T02:15:17;8.32;;;5.47;;
32038;SDS011;18549;42.286;22.688;2023-07-13T02:17:46;10.73;;;6.55;;
32038;SDS011;18549;42.286;22.688;2023-07-13T02:20:13;11.15;;;5.62;;
32038;SDS011;18549;42.286;22.688;2023-07-13T02:22:40;12.90;;;5.87;;
32038;SDS011;18549;42.286;22.688;2023-07-13T02:25:08;10.10;;;5.03;;
32038;SDS011;18549;42.286;22.688;2023-07-13T02:27:36;7.57;;;5.05;;
32038;SDS011;18549;42.286;22.688;2023-07-13T02:30:05;10.48;;;5.75;;
32038;SDS011;18549;42.286;22.688;2023-07-13T02:32:33;7.72;;;5.43;;
32038;SDS011;18549;42.286;22.688;2023-07-13T02:35:01;8.15;;;5.60;;
32038;SDS011;18549;42.286;22.688;2023-07-13T02:37:29;11.55;;;5.68;;
32038;SDS011;18549;42.286;22.688;2023-07-13T02:39:56;7.53;;;5.40;;
32038;SDS011;18549;42.286;22.688;2023-07-13T02:42:24;10.88;;;6.32;;
32038;SDS011;18549;42.286;22.688;2023-07-13T02:44:51;10.18;;;7.07;;
32038;SDS011;18549;42.286;22.688;2023-07-13T02:47:20;12.68;;;5.70;;
32038;SDS011;18549;42.286;22.688;2023-07-13T02:49:48;9.95;;;5.87;;
32038;SDS011;18549;42.286;22.688;2023-07-13T02:52:15;21.77;;;6.30;;
32038;SDS011;18549;42.286;22.688;2023-07-13T02:54:42;7.95;;;5.60;;
32038;SDS011;18549;42.286;22.688;2023-07-13T02:57:10;8.85;;;5.47;;
32038;SDS011;18549;42.286;22.688;2023-07-13T02:59:37;8.20;;;5.47;;
32038;SDS011;18549;42.286;22.688;2023-07-13T03:02:05;9.50;;;6.37;;
32038;SDS011;18549;42.286;22.688;2023-07-13T03:04:34;12.57;;;6.55;;
32038;SDS011;18549;42.286;22.688;2023-07-13T03:07:02;8.02;;;6.35;;
32038;SDS011;18549;42.286;22.688;2023-07-13T03:09:30;15.63;;;6.72;;
32038;SDS011;18549;42.286;22.688;2023-07-13T03:11:57;9.85;;;6.05;;
32038;SDS011;18549;42.286;22.688;2023-07-13T03:14:25;8.75;;;5.93;;
32038;SDS011;18549;42.286;22.688;2023-07-13T03:16:52;9.30;;;6.10;;
32038;SDS011;18549;42.286;22.688;2023-07-13T03:19:20;17.02;;;6.97;;
32038;SDS011;18549;42.286;22.688;2023-07-13T03:21:49;17.48;;;7.18;;
32038;SDS011;18549;42.286;22.688;2023-07-13T03:24:17;14.40;;;6.93;;
32038;SDS011;18549;42.286;22.688;2023-07-13T03:26:44;10.40;;;6.65;;
32038;SDS011;18549;42.286;22.688;2023-07-13T03:29:11;11.65;;;6.60;;
32038;SDS011;18549;42.286;22.688;2023-07-13T03:31:39;13.43;;;6.95;;
32038;SDS011;18549;42.286;22.688;2023-07-13T03:34:07;12.43;;;6.60;;
32038;SDS011;18549;42.286;22.688;2023-07-13T03:36:34;9.52;;;7.18;;
32038;SDS011;18549;42.286;22.688;2023-07-13T03:39:03;9.98;;;6.43;;
32038;SDS011;18549;42.286;22.688;2023-07-13T03:41:33;10.25;;;6.70;;
32038;SDS011;18549;42.286;22.688;2023-07-13T03:44:01;8.48;;;6.53;;
32038;SDS011;18549;42.286;22.688;2023-07-13T03:46:28;9.88;;;7.00;;
32038;SDS011;18549;42.286;22.688;2023-07-13T03:48:56;14.73;;;8.25;;
32038;SDS011;18549;42.286;22.688;2023-07-13T03:51:24;9.05;;;6.22;;
32038;SDS011;18549;42.286;22.688;2023-07-13T03:53:51;14.68;;;6.65;;
32038;SDS011;18549;42.286;22.688;2023-07-13T03:56:21;8.77;;;5.97;;
32038;SDS011;18549;42.286;22.688;2023-07-13T03:58:49;9.10;;;6.50;;
32038;SDS011;18549;42.286;22.688;2023-07-13T04:01:19;7.87;;;5.93;;
32038;SDS011;18549;42.286;22.688;2023-07-13T04:03:48;9.88;;;6.45;;
32038;SDS011;18549;42.286;22.688;2023-07-13T04:06:16;9.48;;;6.57;;
32038;SDS011;18549;42.286;22.688;2023-07-13T04:08:47;12.25;;;5.75;;
32038;SDS011;18549;42.286;22.688;2023-07-13T04:11:17;10.82;;;6.43;;
32038;SDS011;18549;42.286;22.688;2023-07-13T04:13:46;12.40;;;6.45;;
32038;SDS011;18549;42.286;22.688;2023-07-13T04:16:15;14.35;;;6.90;;
32038;SDS011;18549;42.286;22.688;2023-07-13T04:18:44;12.27;;;5.93;;
32038;SDS011;18549;42.286;22.688;2023-07-13T04:21:12;9.13;;;6.00;;
32038;SDS011;18549;42.286;22.688;2023-07-13T04:23:40;10.68;;;7.40;;
32038;SDS011;18549;42.286;22.688;2023-07-13T04:26:07;14.95;;;8.35;;
32038;SDS011;18549;42.286;22.688;2023-07-13T04:28:35;11.73;;;8.75;;
32038;SDS011;18549;42.286;22.688;2023-07-13T04:31:04;14.85;;;9.32;;
32038;SDS011;18549;42.286;22.688;2023-07-13T04:33:31;8.40;;;7.50;;
32038;SDS011;18549;42.286;22.688;2023-07-13T04:35:59;15.23;;;7.50;;
32038;SDS011;18549;42.286;22.688;2023-07-13T04:38:28;15.30;;;7.40;;
32038;SDS011;18549;42.286;22.688;2023-07-13T04:40:57;21.10;;;7.82;;
32038;SDS011;18549;42.286;22.688;2023-07-13T04:43:26;11.05;;;6.45;;
32038;SDS011;18549;42.286;22.688;2023-07-13T04:45:54;11.05;;;7.22;;
32038;SDS011;18549;42.286;22.688;2023-07-13T04:48:24;13.62;;;6.68;;
32038;SDS011;18549;42.286;22.688;2023-07-13T04:50:55;11.95;;;7.47;;
32038;SDS011;18549;42.286;22.688;2023-07-13T04:53:23;14.30;;;7.55;;
32038;SDS011;18549;42.286;22.688;2023-07-13T04:55:51;12.18;;;7.68;;
32038;SDS011;18549;42.286;22.688;2023-07-13T04:58:19;14.27;;;7.97;;
32038;SDS011;18549;42.286;22.688;2023-07-13T05:00:46;11.00;;;7.18;;
32038;SDS011;18549;42.286;22.688;2023-07-13T05:03:14;13.62;;;8.48;;
32038;SDS011;18549;42.286;22.688;2023-07-13T05:05:43;10.45;;;7.90;;
32038;SDS011;18549;42.286;22.688;2023-07-13T05:08:10;12.57;;;8.70;;
32038;SDS011;18549;42.286;22.688;2023-07-13T05:10:37;9.18;;;8.20;;
32038;SDS011;18549;42.286;22.688;2023-07-13T05:13:05;12.07;;;7.55;;
32038;SDS011;18549;42.286;22.688;2023-07-13T05:15:32;17.58;;;8.52;;
32038;SDS011;18549;42.286;22.688;2023-07-13T05:18:00;11.43;;;8.00;;
32038;SDS011;18549;42.286;22.688;2023-07-13T05:20:27;15.07;;;9.32;;
32038;SDS011;18549;42.286;22.688;2023-07-13T05:22:56;15.55;;;9.95;;
32038;SDS011;18549;42.286;22.688;2023-07-13T05:25:23;18.52;;;9.35;;
32038;SDS011;18549;42.286;22.688;2023-07-13T05:27:51;15.32;;;8.48;;
32038;SDS011;18549;42.286;22.688;2023-07-13T05:30:18;18.00;;;9.40;;
32038;SDS011;18549;42.286;22.688;2023-07-13T05:32:46;20.05;;;9.95;;
32038;SDS011;18549;42.286;22.688;2023-07-13T05:35:13;16.75;;;8.82;;
32038;SDS011;18549;42.286;22.688;2023-07-13T05:37:41;19.37;;;8.98;;
32038;SDS011;18549;42.286;22.688;2023-07-13T05:40:11;19.70;;;8.80;;
32038;SDS011;18549;42.286;22.688;2023-07-13T05:42:39;19.48;;;9.88;;
32038;SDS011;18549;42.286;22.688;2023-07-13T05:45:06;24.65;;;9.80;;
32038;SDS011;18549;42.286;22.688;2023-07-13T05:47:35;21.25;;;9.02;;
32038;SDS011;18549;42.286;22.688;2023-07-13T05:50:02;22.27;;;9.82;;
32038;SDS011;18549;42.286;22.688;2023-07-13T05:52:30;27.15;;;8.45;;
32038;SDS011;18549;42.286;22.688;2023-07-13T05:54:57;17.98;;;9.07;;
32038;SDS011;18549;42.286;22.688;2023-07-13T05:57:26;24.00;;;9.13;;
32038;SDS011;18549;42.286;22.688;2023-07-13T05:59:53;16.30;;;11.27;;
32038;SDS011;18549;42.286;22.688;2023-07-13T06:02:21;18.17;;;10.35;;
32038;SDS011;18549;42.286;22.688;2023-07-13T06:04:48;12.90;;;9.07;;
32038;SDS011;18549;42.286;22.688;2023-07-13T06:07:15;13.60;;;9.65;;
32038;SDS011;18549;42.286;22.688;2023-07-13T06:09:43;17.77;;;9.43;;
32038;SDS011;18549;42.286;22.688;2023-07-13T06:12:10;14.20;;;9.25;;
32038;SDS011;18549;42.286;22.688;2023-07-13T06:14:39;21.98;;;8.73;;
32038;SDS011;18549;42.286;22.688;2023-07-13T06:17:07;23.75;;;9.55;;
32038;SDS011;18549;42.286;22.688;2023-07-13T06:19:35;12.75;;;8.10;;
32038;SDS011;18549;42.286;22.688;2023-07-13T06:22:03;14.50;;;9.30;;
32038;SDS011;18549;42.286;22.688;2023-07-13T06:24:30;16.52;;;9.45;;
32038;SDS011;18549;42.286;22.688;2023-07-13T06:26:58;15.10;;;8.27;;
32038;SDS011;18549;42.286;22.688;2023-07-13T06:29:25;11.10;;;7.68;;
32038;SDS011;18549;42.286;22.688;2023-07-13T06:31:54;11.85;;;8.00;;
32038;SDS011;18549;42.286;22.688;2023-07-13T06:34:22;12.50;;;8.68;;
32038;SDS011;18549;42.286;22.688;2023-07-13T06:36:49;15.00;;;7.62;;
32038;SDS011;18549;42.286;22.688;2023-07-13T06:39:17;14.27;;;7.62;;
32038;SDS011;18549;42.286;22.688;2023-07-13T06:41:44;25.80;;;8.20;;
32038;SDS011;18549;42.286;22.688;2023-07-13T06:44:11;13.18;;;7.43;;
32038;SDS011;18549;42.286;22.688;2023-07-13T06:46:39;14.13;;;8.15;;
32038;SDS011;18549;42.286;22.688;2023-07-13T06:49:08;13.55;;;8.65;;
32038;SDS011;18549;42.286;22.688;2023-07-13T06:51:36;16.83;;;7.90;;
32038;SDS011;18549;42.286;22.688;2023-07-13T06:54:03;9.95;;;7.53;;
32038;SDS011;18549;42.286;22.688;2023-07-13T06:56:31;12.25;;;7.60;;
32038;SDS011;18549;42.286;22.688;2023-07-13T06:58:58;11.10;;;7.47;;
32038;SDS011;18549;42.286;22.688;2023-07-13T07:01:25;8.43;;;7.00;;
32038;SDS011;18549;42.286;22.688;2023-07-13T07:03:53;8.75;;;7.22;;
32038;SDS011;18549;42.286;22.688;2023-07-13T07:06:22;14.38;;;8.10;;
32038;SDS011;18549;42.286;22.688;2023-07-13T07:08:50;15.45;;;7.68;;
32038;SDS011;18549;42.286;22.688;2023-07-13T07:11:19;9.30;;;7.53;;
32038;SDS011;18549;42.286;22.688;2023-07-13T07:13:48;13.85;;;7.60;;
32038;SDS011;18549;42.286;22.688;2023-07-13T07:16:16;13.13;;;7.85;;
32038;SDS011;18549;42.286;22.688;2023-07-13T07:18:44;16.25;;;7.90;;
32038;SDS011;18549;42.286;22.688;2023-07-13T07:21:12;12.75;;;6.80;;
32038;SDS011;18549;42.286;22.688;2023-07-13T07:23:42;10.32;;;7.18;;
32038;SDS011;18549;42.286;22.688;2023-07-13T07:26:10;22.37;;;7.53;;
32038;SDS011;18549;42.286;22.688;2023-07-13T07:28:37;9.07;;;7.05;;
32038;SDS011;18549;42.286;22.688;2023-07-13T07:31:05;14.87;;;6.93;;
32038;SDS011;18549;42.286;22.688;2023-07-13T07:33:33;14.38;;;6.68;;
32038;SDS011;18549;42.286;22.688;2023-07-13T07:36:00;10.75;;;6.72;;
32038;SDS011;18549;42.286;22.688;2023-07-13T07:38:28;13.85;;;7.25;;
32038;SDS011;18549;42.286;22.688;2023-07-13T07:40:57;11.93;;;6.70;;
32038;SDS011;18549;42.286;22.688;2023-07-13T07:43:25;9.07;;;6.32;;
32038;SDS011;18549;42.286;22.688;2023-07-13T07:45:52;10.55;;;6.50;;
32038;SDS011;18549;42.286;22.688;2023-07-13T07:48:20;13.07;;;7.43;;
32038;SDS011;18549;42.286;22.688;2023-07-13T07:50:47;10.85;;;7.05;;
32038;SDS011;18549;42.286;22.688;2023-07-13T07:53:15;13.13;;;6.97;;
32038;SDS011;18549;42.286;22.688;2023-07-13T07:55:42;18.73;;;7.72;;
32038;SDS011;18549;42.286;22.688;2023-07-13T07:58:11;14.38;;;6.78;;
32038;SDS011;18549;42.286;22.688;2023-07-13T08:00:39;12.82;;;6.87;;
32038;SDS011;18549;42.286;22.688;2023-07-13T08:03:06;16.00;;;7.25;;
32038;SDS011;18549;42.286;22.688;2023-07-13T08:05:34;8.18;;;5.87;;
32038;SDS011;18549;42.286;22.688;2023-07-13T08:08:02;8.57;;;6.10;;
32038;SDS011;18549;42.286;22.688;2023-07-13T08:10:30;7.32;;;5.47;;
32038;SDS011;18549;42.286;22.688;2023-07-13T08:12:58;12.70;;;6.03;;
32038;SDS011;18549;42.286;22.688;2023-07-13T08:15:26;7.80;;;6.87;;
32038;SDS011;18549;42.286;22.688;2023-07-13T08:17:54;10.00;;;6.43;;
32038;SDS011;18549;42.286;22.688;2023-07-13T08:20:22;9.88;;;6.78;;
32038;SDS011;18549;42.286;22.688;2023-07-13T08:22:49;10.20;;;7.03;;
32038;SDS011;18549;42.286;22.688;2023-07-13T08:25:17;7.32;;;5.82;;
32038;SDS011;18549;42.286;22.688;2023-07-13T08:27:45;11.10;;;7.05;;
32038;SDS011;18549;42.286;22.688;2023-07-13T08:30:13;10.93;;;6.55;;
32038;SDS011;18549;42.286;22.688;2023-07-13T08:32:41;10.48;;;7.47;;
32038;SDS011;18549;42.286;22.688;2023-07-13T08:35:09;11.35;;;7.03;;
32038;SDS011;18549;42.286;22.688;2023-07-13T08:37:37;13.13;;;6.80;;
32038;SDS011;18549;42.286;22.688;2023-07-13T08:40:05;10.77;;;6.12;;
32038;SDS011;18549;42.286;22.688;2023-07-13T08:42:36;8.48;;;6.72;;
32038;SDS011;18549;42.286;22.688;2023-07-13T08:45:13;10.57;;;6.43;;
32038;SDS011;18549;42.286;22.688;2023-07-13T08:47:48;7.60;;;6.43;;
32038;SDS011;18549;42.286;22.688;2023-07-13T08:50:20;8.35;;;6.72;;
32038;SDS011;18549;42.286;22.688;2023-07-13T08:52:51;10.32;;;6.87;;
32038;SDS011;18549;42.286;22.688;2023-07-13T08:55:22;10.23;;;7.22;;
32038;SDS011;18549;42.286;22.688;2023-07-13T08:57:54;10.38;;;7.35;;
32038;SDS011;18549;42.286;22.688;2023-07-13T09:00:32;12.35;;;6.78;;
32038;SDS011;18549;42.286;22.688;2023-07-13T09:03:07;15.93;;;7.18;;
32038;SDS011;18549;42.286;22.688;2023-07-13T09:05:46;10.55;;;7.20;;
32038;SDS011;18549;42.286;22.688;2023-07-13T09:08:23;10.07;;;6.40;;
32038;SDS011;18549;42.286;22.688;2023-07-13T09:11:06;10.38;;;7.05;;
32038;SDS011;18549;42.286;22.688;2023-07-13T09:13:48;15.65;;;6.60;;
32038;SDS011;18549;42.286;22.688;2023-07-13T09:16:24;7.75;;;6.22;;
32038;SDS011;18549;42.286;22.688;2023-07-13T09:18:54;9.55;;;7.20;;
32038;SDS011;18549;42.286;22.688;2023-07-13T09:21:29;10.23;;;6.57;;
32038;SDS011;18549;42.286;22.688;2023-07-13T09:23:59;9.95;;;6.28;;
32038;SDS011;18549;42.286;22.688;2023-07-13T09:26:28;7.68;;;5.95;;
32038;SDS011;18549;42.286;22.688;2023-07-13T09:28:59;9.98;;;6.93;;
32038;SDS011;18549;42.286;22.688;2023-07-13T09:31:38;9.75;;;6.57;;
32038;SDS011;18549;42.286;22.688;2023-07-13T09:34:11;6.93;;;5.93;;
32038;SDS011;18549;42.286;22.688;2023-07-13T09:36:41;9.30;;;5.90;;
32038;SDS011;18549;42.286;22.688;2023-07-13T09:39:12;7.85;;;6.35;;
32038;SDS011;18549;42.286;22.688;2023-07-13T09:41:49;10.32;;;5.93;;
32038;SDS011;18549;42.286;22.688;2023-07-13T09:44:27;9.77;;;6.40;;
32038;SDS011;18549;42.286;22.688;2023-07-13T09:46:57;8.65;;;6.25;;
32038;SDS011;18549;42.286;22.688;2023-07-13T09:49:26;7.93;;;5.95;;
32038;SDS011;18549;42.286;22.688;2023-07-13T09:51:59;9.95;;;6.22;;
32038;SDS011;18549;42.286;22.688;2023-07-13T09:54:32;8.63;;;5.93;;
32038;SDS011;18549;42.286;22.688;2023-07-13T09:57:01;17.95;;;5.62;;
32038;SDS011;18549;42.286;22.688;2023-07-13T09:59:33;5.82;;;5.25;;
32038;SDS011;18549;42.286;22.688;2023-07-13T10:02:19;7.60;;;5.57;;
32038;SDS011;18549;42.286;22.688;2023-07-13T10:04:57;8.35;;;5.35;;
32038;SDS011;18549;42.286;22.688;2023-07-13T10:07:26;9.10;;;5.28;;
32038;SDS011;18549;42.286;22.688;2023-07-13T10:09:54;7.60;;;5.03;;
32038;SDS011;18549;42.286;22.688;2023-07-13T10:12:22;12.15;;;5.75;;
32038;SDS011;18549;42.286;22.688;2023-07-13T10:14:53;7.93;;;5.90;;
32038;SDS011;18549;42.286;22.688;2023-07-13T10:17:25;8.02;;;5.25;;
32038;SDS011;18549;42.286;22.688;2023-07-13T10:20:03;8.50;;;6.30;;
32038;SDS011;18549;42.286;22.688;2023-07-13T10:22:39;12.20;;;5.55;;
32038;SDS011;18549;42.286;22.688;2023-07-13T10:25:18;7.45;;;5.60;;
32038;SDS011;18549;42.286;22.688;2023-07-13T10:27:47;5.90;;;4.95;;
32038;SDS011;18549;42.286;22.688;2023-07-13T10:30:19;5.78;;;5.07;;
32038;SDS011;18549;42.286;22.688;2023-07-13T10:32:50;9.48;;;5.90;;
32038;SDS011;18549;42.286;22.688;2023-07-13T10:35:21;11.32;;;5.68;;
32038;SDS011;18549;42.286;22.688;2023-07-13T10:37:49;6.70;;;5.90;;
32038;SDS011;18549;42.286;22.688;2023-07-13T10:40:21;9.20;;;6.07;;
32038;SDS011;18549;42.286;22.688;2023-07-13T10:42:54;10.15;;;6.07;;
32038;SDS011;18549;42.286;22.688;2023-07-13T10:45:25;8.43;;;5.80;;
32038;SDS011;18549;42.286;22.688;2023-07-13T10:47:55;8.48;;;6.62;;
32038;SDS011;18549;42.286;22.688;2023-07-13T10:50:25;10.55;;;6.47;;
32038;SDS011;18549;42.286;22.688;2023-07-13T10:53:00;8.95;;;5.93;;
32038;SDS011;18549;42.286;22.688;2023-07-13T10:55:36;10.65;;;6.30;;
32038;SDS011;18549;42.286;22.688;2023-07-13T10:58:11;10.77;;;6.50;;
32038;SDS011;18549;42.286;22.688;2023-07-13T11:00:46;8.95;;;6.32;;
32038;SDS011;18549;42.286;22.688;2023-07-13T11:03:17;8.32;;;6.82;;
32038;SDS011;18549;42.286;22.688;2023-07-13T11:06:03;9.30;;;6.62;;
32038;SDS011;18549;42.286;22.688;2023-07-13T11:08:36;7.57;;;6.30;;
32038;SDS011;18549;42.286;22.688;2023-07-13T11:16:57;9.33;;;6.73;;
32038;SDS011;18549;42.286;22.688;2023-07-13T11:22:23;7.43;;;5.78;;
32038;SDS011;18549;42.286;22.688;2023-07-13T11:24:59;7.55;;;5.72;;
32038;SDS011;18549;42.286;22.688;2023-07-13T11:27:39;14.02;;;6.80;;
32038;SDS011;18549;42.286;22.688;2023-07-13T11:30:20;12.85;;;6.20;;
32038;SDS011;18549;42.286;22.688;2023-07-13T11:32:50;8.38;;;6.00;;
32038;SDS011;18549;42.286;22.688;2023-07-13T11:35:31;7.90;;;5.60;;
32038;SDS011;18549;42.286;22.688;2023-07-13T11:38:05;11.98;;;6.05;;
32038;SDS011;18549;42.286;22.688;2023-07-13T11:40:41;9.65;;;6.30;;
32038;SDS011;18549;42.286;22.688;2023-07-13T11:43:12;11.30;;;6.53;;
32038;SDS011;18549;42.286;22.688;2023-07-13T11:45:41;9.98;;;6.25;;
32038;SDS011;18549;42.286;22.688;2023-07-13T11:48:18;8.88;;;6.25;;
32038;SDS011;18549;42.286;22.688;2023-07-13T11:50:51;6.95;;;5.80;;
32038;SDS011;18549;42.286;22.688;2023-07-13T11:53:25;6.90;;;5.85;;
32038;SDS011;18549;42.286;22.688;2023-07-13T11:55:55;10.60;;;5.00;;
32038;SDS011;18549;42.286;22.688;2023-07-13T11:58:24;6.60;;;5.12;;
32038;SDS011;18549;42.286;22.688;2023-07-13T12:00:55;14.40;;;6.22;;
32038;SDS011;18549;42.286;22.688;2023-07-13T12:03:27;5.95;;;5.35;;
32038;SDS011;18549;42.286;22.688;2023-07-13T12:05:59;9.13;;;5.68;;
32038;SDS011;18549;42.286;22.688;2023-07-13T12:08:29;6.45;;;5.40;;
32038;SDS011;18549;42.286;22.688;2023-07-13T12:10:58;6.75;;;5.28;;
32038;SDS011;18549;42.286;22.688;2023-07-13T12:13:27;8.82;;;5.55;;
32038;SDS011;18549;42.286;22.688;2023-07-13T12:15:56;8.53;;;5.73;;
32038;SDS011;18549;42.286;22.688;2023-07-13T12:18:28;5.72;;;4.25;;
32038;SDS011;18549;42.286;22.688;2023-07-13T12:20:59;7.30;;;4.87;;
32038;SDS011;18549;42.286;22.688;2023-07-13T12:23:30;11.32;;;4.60;;
32038;SDS011;18549;42.286;22.688;2023-07-13T12:26:00;8.00;;;4.33;;
32038;SDS011;18549;42.286;22.688;2023-07-13T12:28:31;11.02;;;4.70;;
32038;SDS011;18549;42.286;22.688;2023-07-13T12:31:00;6.30;;;4.73;;
32038;SDS011;18549;42.286;22.688;2023-07-13T12:33:29;10.88;;;5.30;;
32038;SDS011;18549;42.286;22.688;2023-07-13T12:35:59;10.05;;;4.82;;
32038;SDS011;18549;42.286;22.688;2023-07-13T12:38:31;9.68;;;4.60;;
32038;SDS011;18549;42.286;22.688;2023-07-13T12:40:59;5.62;;;4.43;;
32038;SDS011;18549;42.286;22.688;2023-07-13T12:43:30;7.00;;;4.53;;
32038;SDS011;18549;42.286;22.688;2023-07-13T12:46:03;6.10;;;3.97;;
32038;SDS011;18549;42.286;22.688;2023-07-13T12:48:37;8.40;;;4.93;;
32038;SDS011;18549;42.286;22.688;2023-07-13T12:51:08;5.40;;;4.03;;
32038;SDS011;18549;42.286;22.688;2023-07-13T12:53:40;7.95;;;4.95;;
32038;SDS011;18549;42.286;22.688;2023-07-13T12:56:15;13.68;;;4.53;;
32038;SDS011;18549;42.286;22.688;2023-07-13T12:58:46;8.40;;;4.47;;
32038;SDS011;18549;42.286;22.688;2023-07-13T13:01:20;6.30;;;4.28;;
32038;SDS011;18549;42.286;22.688;2023-07-13T13:03:49;10.32;;;4.72;;
32038;SDS011;18549;42.286;22.688;2023-07-13T13:06:21;8.57;;;4.07;;
32038;SDS011;18549;42.286;22.688;2023-07-13T13:08:53;9.82;;;5.62;;
32038;SDS011;18549;42.286;22.688;2023-07-13T13:11:22;8.30;;;4.18;;
32038;SDS011;18549;42.286;22.688;2023-07-13T13:13:51;7.55;;;4.32;;
32038;SDS011;18549;42.286;22.688;2023-07-13T13:16:20;9.00;;;5.07;;
32038;SDS011;18549;42.286;22.688;2023-07-13T13:18:50;6.72;;;4.65;;
32038;SDS011;18549;42.286;22.688;2023-07-13T13:21:19;10.32;;;4.30;;
32038;SDS011;18549;42.286;22.688;2023-07-13T13:23:47;10.50;;;4.72;;
32038;SDS011;18549;42.286;22.688;2023-07-13T13:26:18;10.68;;;4.80;;
32038;SDS011;18549;42.286;22.688;2023-07-13T13:28:46;10.50;;;4.80;;
32038;SDS011;18549;42.286;22.688;2023-07-13T13:31:14;5.00;;;4.35;;
32038;SDS011;18549;42.286;22.688;2023-07-13T13:33:42;7.87;;;4.68;;
32038;SDS011;18549;42.286;22.688;2023-07-13T13:36:14;10.10;;;4.80;;
32038;SDS011;18549;42.286;22.688;2023-07-13T13:38:42;7.00;;;4.12;;
32038;SDS011;18549;42.286;22.688;2023-07-13T13:41:10;12.40;;;5.15;;
32038;SDS011;18549;42.286;22.688;2023-07-13T13:43:40;9.30;;;5.62;;
32038;SDS011;18549;42.286;22.688;2023-07-13T13:46:12;7.82;;;4.85;;
32038;SDS011;18549;42.286;22.688;2023-07-13T13:48:42;9.75;;;3.95;;
32038;SDS011;18549;42.286;22.688;2023-07-13T13:51:14;8.98;;;4.18;;
32038;SDS011;18549;42.286;22.688;2023-07-13T13:53:44;10.48;;;5.15;;
32038;SDS011;18549;42.286;22.688;2023-07-13T13:56:12;9.77;;;4.25;;
32038;SDS011;18549;42.286;22.688;2023-07-13T13:58:41;5.03;;;3.95;;
32038;SDS011;18549;42.286;22.688;2023-07-13T14:01:12;8.82;;;4.70;;
32038;SDS011;18549;42.286;22.688;2023-07-13T14:03:43;14.23;;;4.07;;
32038;SDS011;18549;42.286;22.688;2023-07-13T14:06:11;5.62;;;4.47;;
32038;SDS011;18549;42.286;22.688;2023-07-13T14:08:39;9.85;;;5.10;;
32038;SDS011;18549;42.286;22.688;2023-07-13T14:11:07;6.90;;;3.85;;
32038;SDS011;18549;42.286;22.688;2023-07-13T14:13:40;9.98;;;4.85;;
32038;SDS011;18549;42.286;22.688;2023-07-13T14:16:12;9.98;;;4.18;;
32038;SDS011;18549;42.286;22.688;2023-07-13T14:18:44;11.20;;;4.32;;
32038;SDS011;18549;42.286;22.688;2023-07-13T14:21:12;13.00;;;4.62;;
32038;SDS011;18549;42.286;22.688;2023-07-13T14:23:41;10.20;;;4.85;;
32038;SDS011;18549;42.286;22.688;2023-07-13T14:26:11;9.32;;;4.22;;
32038;SDS011;18549;42.286;22.688;2023-07-13T14:28:43;10.88;;;4.25;;
32038;SDS011;18549;42.286;22.688;2023-07-13T14:31:13;15.38;;;4.72;;
32038;SDS011;18549;42.286;22.688;2023-07-13T14:33:42;13.68;;;4.20;;
32038;SDS011;18549;42.286;22.688;2023-07-13T14:36:15;9.30;;;3.85;;
32038;SDS011;18549;42.286;22.688;2023-07-13T14:38:51;10.38;;;4.37;;
32038;SDS011;18549;42.286;22.688;2023-07-13T14:41:18;10.82;;;4.10;;
32038;SDS011;18549;42.286;22.688;2023-07-13T14:43:48;11.65;;;3.70;;
32038;SDS011;18549;42.286;22.688;2023-07-13T14:46:24;9.90;;;3.30;;
32038;SDS011;18549;42.286;22.688;2023-07-13T14:48:58;15.85;;;3.85;;
32038;SDS011;18549;42.286;22.688;2023-07-13T14:51:29;14.98;;;4.53;;
32038;SDS011;18549;42.286;22.688;2023-07-13T14:53:58;11.90;;;4.10;;